createdAt,value
2016-04-16T00:00:17.493Z,9.13
2016-04-16T00:01:17.496Z,9.02
2016-04-16T00:02:17.499Z,9.03
2016-04-16T00:03:17.502Z,9.03
2016-04-16T00:04:17.489Z,9.08
2016-04-16T00:05:17.491Z,9
2016-04-16T00:06:17.494Z,9.15
2016-04-16T00:07:17.496Z,9.03
2016-04-16T00:08:17.499Z,8.99
2016-04-16T00:09:17.502Z,8.99
2016-04-16T00:10:17.504Z,9.08
2016-04-16T00:11:17.491Z,9.02
2016-04-16T00:12:17.509Z,8.89
2016-04-16T00:13:17.496Z,8.93
2016-04-16T00:14:17.499Z,8.87
2016-04-16T00:15:17.502Z,8.87
2016-04-16T00:16:17.490Z,8.89
2016-04-16T00:17:17.493Z,8.93
2016-04-16T00:18:17.495Z,8.9
2016-04-16T00:19:17.498Z,8.87
2016-04-16T00:20:17.500Z,8.82
2016-04-16T00:21:17.347Z,8.86
2016-04-16T00:22:17.350Z,8.86
2016-04-16T00:23:17.509Z,8.89
2016-04-16T00:24:17.496Z,8.89
2016-04-16T00:25:17.498Z,8.9
2016-04-16T00:26:17.501Z,8.87
2016-04-16T00:27:17.503Z,8.84
2016-04-16T00:28:17.491Z,8.89
2016-04-16T00:29:17.509Z,8.89
2016-04-16T00:30:17.496Z,8.9
2016-04-16T00:31:17.499Z,8.95
2016-04-16T00:32:17.501Z,8.93
2016-04-16T00:33:17.504Z,8.97
2016-04-16T00:34:17.491Z,8.95
2016-04-16T00:35:17.494Z,8.93
2016-04-16T00:36:17.497Z,8.97
2016-04-16T00:37:17.499Z,8.9
2016-04-16T00:38:17.502Z,8.92
2016-04-16T00:39:17.504Z,8.86
2016-04-16T00:40:17.491Z,8.99
2016-04-16T00:41:17.494Z,8.87
2016-04-16T00:42:17.496Z,8.89
2016-04-16T00:43:17.499Z,8.87
2016-04-16T00:44:17.501Z,8.93
2016-04-16T00:45:17.504Z,8.95
2016-04-16T00:46:17.492Z,8.9
2016-04-16T00:47:17.495Z,8.9
2016-04-16T00:48:17.498Z,8.72
2016-04-16T00:49:17.516Z,8.74
2016-04-16T00:50:17.503Z,8.82
2016-04-16T00:51:17.506Z,8.74
2016-04-16T00:52:17.492Z,8.84
2016-04-16T00:53:17.496Z,8.79
2016-04-16T00:54:17.498Z,8.75
2016-04-16T00:55:17.501Z,8.74
2016-04-16T00:56:17.504Z,8.74
2016-04-16T00:57:17.506Z,8.77
2016-04-16T00:58:17.509Z,8.74
2016-04-16T00:59:17.511Z,8.68
2016-04-16T01:00:17.498Z,8.66
2016-04-16T01:01:17.500Z,8.69
2016-04-16T01:02:17.488Z,8.68
2016-04-16T01:03:17.491Z,8.63
2016-04-16T01:04:17.494Z,8.68
2016-04-16T01:05:17.606Z,8.57
2016-04-16T01:06:17.499Z,8.6
2016-04-16T01:07:17.502Z,8.59
2016-04-16T01:08:17.504Z,8.59
2016-04-16T01:09:17.491Z,8.49
2016-04-16T01:10:17.494Z,8.53
2016-04-16T01:11:17.496Z,8.54
2016-04-16T01:12:17.499Z,8.57
2016-04-16T01:13:17.501Z,8.57
2016-04-16T01:14:17.505Z,8.69
2016-04-16T01:15:17.492Z,8.64
2016-04-16T01:16:17.495Z,8.68
2016-04-16T01:17:17.497Z,8.64
2016-04-16T01:18:17.500Z,8.63
2016-04-16T01:19:17.503Z,8.64
2016-04-16T01:20:17.380Z,8.68
2016-04-16T01:21:17.509Z,8.63
2016-04-16T01:22:17.495Z,8.63
2016-04-16T01:23:17.498Z,8.57
2016-04-16T01:24:17.484Z,8.56
2016-04-16T01:25:17.487Z,8.59
2016-04-16T01:26:17.489Z,8.56
2016-04-16T01:27:17.508Z,8.57
2016-04-16T01:28:17.495Z,8.53
2016-04-16T01:29:17.498Z,8.52
2016-04-16T01:30:17.500Z,8.44
2016-04-16T01:31:17.503Z,8.42
2016-04-16T01:32:17.506Z,8.46
2016-04-16T01:33:17.493Z,8.46
2016-04-16T01:34:17.496Z,8.45
2016-04-16T01:35:17.733Z,8.44
2016-04-16T01:36:17.501Z,8.44
2016-04-16T01:37:17.488Z,8.39
2016-04-16T01:38:17.491Z,8.39
2016-04-16T01:39:17.493Z,8.39
2016-04-16T01:40:17.496Z,8.34
2016-04-16T01:41:17.499Z,8.39
2016-04-16T01:42:17.485Z,8.36
2016-04-16T01:43:17.504Z,8.45
2016-04-16T01:44:17.491Z,8.46
2016-04-16T01:45:17.494Z,8.44
2016-04-16T01:46:17.497Z,8.38
2016-04-16T01:47:17.500Z,8.35
2016-04-16T01:48:17.502Z,8.34
2016-04-16T01:49:17.490Z,8.32
2016-04-16T01:50:17.570Z,8.34
2016-04-16T01:51:17.495Z,8.2
2016-04-16T01:52:17.497Z,8.2
2016-04-16T01:53:17.484Z,8.2
2016-04-16T01:54:17.487Z,8.17
2016-04-16T01:55:17.490Z,8.13
2016-04-16T01:56:17.493Z,8.11
2016-04-16T01:57:17.495Z,8.14
2016-04-16T01:58:17.483Z,8.09
2016-04-16T01:59:17.500Z,8.06
2016-04-16T02:00:17.488Z,8.09
2016-04-16T02:01:17.505Z,8.08
2016-04-16T02:02:17.477Z,8.13
2016-04-16T02:03:17.484Z,8.11
2016-04-16T02:04:17.330Z,8.06
2016-04-16T02:05:17.551Z,8.08
2016-04-16T02:06:17.492Z,8.11
2016-04-16T02:07:17.479Z,8.14
2016-04-16T02:08:17.481Z,8.11
2016-04-16T02:09:17.484Z,8.18
2016-04-16T02:10:17.487Z,8.16
2016-04-16T02:11:17.490Z,8.21
2016-04-16T02:12:17.509Z,8.21
2016-04-16T02:13:17.495Z,8.21
2016-04-16T02:14:17.498Z,8.2
2016-04-16T02:15:17.485Z,8.18
2016-04-16T02:16:17.503Z,8.11
2016-04-16T02:17:17.490Z,8.17
2016-04-16T02:18:17.493Z,8.14
2016-04-16T02:19:17.496Z,8.11
2016-04-16T02:20:17.546Z,8.08
2016-04-16T02:21:17.501Z,8.2
2016-04-16T02:22:17.491Z,8.13
2016-04-16T02:23:17.493Z,8.18
2016-04-16T02:24:17.480Z,8.2
2016-04-16T02:25:17.498Z,8.21
2016-04-16T02:26:17.485Z,8.17
2016-04-16T02:27:17.473Z,8.18
2016-04-16T02:28:17.490Z,8.26
2016-04-16T02:29:17.479Z,8.24
2016-04-16T02:30:17.496Z,8.27
2016-04-16T02:31:17.484Z,8.27
2016-04-16T02:32:17.486Z,8.31
2016-04-16T02:33:17.473Z,8.34
2016-04-16T02:34:17.491Z,8.31
2016-04-16T02:35:17.494Z,8.36
2016-04-16T02:36:17.481Z,8.28
2016-04-16T02:37:17.484Z,8.35
2016-04-16T02:38:17.503Z,8.31
2016-04-16T02:39:17.489Z,8.36
2016-04-16T02:40:17.492Z,8.32
2016-04-16T02:41:17.478Z,8.32
2016-04-16T02:42:17.481Z,8.35
2016-04-16T02:43:17.483Z,8.28
2016-04-16T02:44:17.512Z,8.27
2016-04-16T02:45:17.573Z,8.34
2016-04-16T02:46:17.634Z,8.27
2016-04-16T02:47:17.664Z,8.36
2016-04-16T02:48:17.694Z,8.32
2016-04-16T02:49:17.713Z,8.21
2016-04-16T02:50:17.731Z,8.24
2016-04-16T02:51:17.749Z,8.31
2016-04-16T02:52:17.767Z,8.31
2016-04-16T02:53:17.786Z,8.27
2016-04-16T02:54:17.778Z,8.31
2016-04-16T02:55:17.786Z,8.28
2016-04-16T02:56:17.795Z,8.24
2016-04-16T02:57:24.256Z,8.24
2016-04-16T02:58:17.796Z,8.24
2016-04-16T02:59:17.801Z,8.18
2016-04-16T03:00:17.806Z,8.16
2016-04-16T03:01:17.810Z,8.2
2016-04-16T03:02:17.800Z,8.14
2016-04-16T03:03:17.820Z,8.17
2016-04-16T03:04:17.823Z,8.14
2016-04-16T03:05:17.827Z,8.08
2016-04-16T03:06:17.814Z,8.11
2016-04-16T03:07:17.818Z,8.09
2016-04-16T03:08:17.805Z,7.96
2016-04-16T03:09:17.824Z,8.13
2016-04-16T03:10:17.811Z,8.06
2016-04-16T03:11:17.831Z,8.05
2016-04-16T03:12:17.818Z,8.06
2016-04-16T03:13:17.821Z,8.01
2016-04-16T03:14:17.823Z,7.96
2016-04-16T03:15:17.811Z,8.01
2016-04-16T03:16:17.829Z,7.96
2016-04-16T03:17:17.800Z,7.96
2016-04-16T03:18:17.819Z,7.99
2016-04-16T03:19:17.821Z,7.88
2016-04-16T03:20:17.809Z,7.88
2016-04-16T03:21:17.827Z,7.81
2016-04-16T03:22:17.814Z,7.77
2016-04-16T03:23:17.816Z,7.78
2016-04-16T03:24:17.835Z,7.81
2016-04-16T03:25:17.805Z,7.7
2016-04-16T03:26:17.808Z,7.74
2016-04-16T03:27:17.827Z,7.74
2016-04-16T03:28:17.830Z,7.72
2016-04-16T03:29:17.817Z,7.64
2016-04-16T03:30:17.835Z,7.59
2016-04-16T03:31:17.822Z,7.59
2016-04-16T03:32:17.810Z,7.7
2016-04-16T03:33:17.812Z,7.58
2016-04-16T03:34:17.815Z,7.58
2016-04-16T03:35:17.817Z,7.51
2016-04-16T03:36:17.804Z,7.41
2016-04-16T03:37:17.807Z,7.41
2016-04-16T03:38:17.810Z,7.5
2016-04-16T03:39:17.812Z,7.48
2016-04-16T03:40:17.815Z,7.36
2016-04-16T03:41:17.818Z,7.4
2016-04-16T03:42:17.805Z,7.32
2016-04-16T03:43:17.809Z,7.31
2016-04-16T03:44:17.826Z,7.36
2016-04-16T03:45:17.814Z,7.22
2016-04-16T03:46:17.800Z,7.26
2016-04-16T03:47:17.803Z,7.19
2016-04-16T03:48:17.806Z,7.15
2016-04-16T03:49:17.808Z,7.19
2016-04-16T03:50:17.811Z,7.18
2016-04-16T03:51:17.829Z,7.1
2016-04-16T03:52:17.848Z,7.08
2016-04-16T03:53:17.819Z,7.08
2016-04-16T03:54:17.806Z,7.08
2016-04-16T03:55:17.808Z,7.04
2016-04-16T03:56:17.811Z,7.08
2016-04-16T03:57:17.814Z,7.07
2016-04-16T03:58:17.801Z,7.1
2016-04-16T03:59:17.819Z,7.11
2016-04-16T04:00:17.806Z,7.07
2016-04-16T04:01:17.809Z,7.07
2016-04-16T04:02:17.812Z,7.05
2016-04-16T04:03:17.799Z,7.03
2016-04-16T04:04:17.661Z,7.01
2016-04-16T04:05:17.804Z,6.96
2016-04-16T04:06:17.807Z,6.89
2016-04-16T04:07:17.793Z,6.9
2016-04-16T04:08:17.812Z,6.92
2016-04-16T04:09:17.799Z,6.92
2016-04-16T04:10:17.818Z,6.95
2016-04-16T04:11:17.805Z,6.9
2016-04-16T04:12:17.807Z,6.93
2016-04-16T04:13:17.810Z,6.93
2016-04-16T04:14:17.797Z,6.93
2016-04-16T04:15:17.800Z,6.92
2016-04-16T04:16:17.818Z,6.9
2016-04-16T04:17:17.805Z,6.92
2016-04-16T04:18:17.808Z,6.77
2016-04-16T04:19:17.811Z,6.72
2016-04-16T04:20:17.798Z,6.78
2016-04-16T04:21:17.801Z,6.75
2016-04-16T04:22:17.803Z,6.7
2016-04-16T04:23:17.806Z,6.72
2016-04-16T04:24:17.808Z,6.68
2016-04-16T04:25:17.796Z,6.71
2016-04-16T04:26:17.813Z,6.68
2016-04-16T04:27:17.816Z,6.68
2016-04-16T04:28:17.788Z,6.65
2016-04-16T04:29:17.807Z,6.71
2016-04-16T04:30:17.794Z,6.77
2016-04-16T04:31:17.796Z,6.71
2016-04-16T04:32:17.815Z,6.78
2016-04-16T04:33:17.801Z,6.83
2016-04-16T04:34:17.805Z,6.83
2016-04-16T04:35:17.791Z,6.78
2016-04-16T04:36:17.794Z,6.82
2016-04-16T04:37:17.813Z,6.83
2016-04-16T04:38:17.799Z,6.83
2016-04-16T04:39:17.802Z,6.92
2016-04-16T04:40:17.789Z,6.95
2016-04-16T04:41:17.807Z,6.96
2016-04-16T04:42:17.794Z,6.93
2016-04-16T04:43:17.798Z,7.01
2016-04-16T04:44:17.800Z,7.04
2016-04-16T04:45:17.803Z,7.07
2016-04-16T04:46:17.806Z,7.08
2016-04-16T04:47:17.792Z,7.05
2016-04-16T04:48:17.795Z,7.08
2016-04-16T04:49:17.797Z,7.18
2016-04-16T04:50:17.784Z,7.13
2016-04-16T04:51:17.803Z,7.19
2016-04-16T04:52:17.790Z,7.21
2016-04-16T04:53:17.793Z,7.25
2016-04-16T04:54:17.795Z,7.22
2016-04-16T04:55:17.798Z,7.23
2016-04-16T04:56:17.785Z,7.28
2016-04-16T04:57:17.803Z,7.26
2016-04-16T04:58:17.634Z,7.23
2016-04-16T04:59:17.794Z,7.36
2016-04-16T05:00:17.796Z,7.37
2016-04-16T05:01:17.783Z,7.41
2016-04-16T05:02:17.786Z,7.47
2016-04-16T05:03:17.788Z,7.37
2016-04-16T05:04:17.791Z,7.46
2016-04-16T05:05:17.809Z,7.43
2016-04-16T05:06:21.343Z,7.37
2016-04-16T05:07:17.784Z,7.39
2016-04-16T05:08:17.790Z,7.26
2016-04-16T05:09:17.792Z,7.31
2016-04-16T05:10:17.795Z,7.39
2016-04-16T05:11:17.797Z,7.26
2016-04-16T05:12:17.801Z,7.37
2016-04-16T05:13:17.787Z,7.43
2016-04-16T05:14:17.806Z,7.51
2016-04-16T05:15:17.777Z,7.47
2016-04-16T05:16:17.795Z,7.58
2016-04-16T05:17:17.781Z,7.87
2016-04-16T05:18:17.784Z,8.31
2016-04-16T05:19:17.787Z,8.96
2016-04-16T05:20:17.790Z,9.58
2016-04-16T05:21:17.793Z,10.13
2016-04-16T05:22:17.796Z,10.68
2016-04-16T05:23:17.783Z,11.05
2016-04-16T05:24:17.786Z,11.51
2016-04-16T05:25:17.789Z,11.89
2016-04-16T05:26:17.791Z,12.23
2016-04-16T05:27:17.793Z,12.45
2016-04-16T05:28:17.797Z,12.63
2016-04-16T05:29:17.799Z,12.72
2016-04-16T05:30:17.802Z,12.95
2016-04-16T05:31:17.805Z,13.12
2016-04-16T05:32:17.792Z,13.2
2016-04-16T05:33:17.794Z,13.58
2016-04-16T05:34:17.796Z,13.79
2016-04-16T05:35:17.799Z,14.18
2016-04-16T05:36:17.786Z,14.26
2016-04-16T05:37:17.805Z,14.59
2016-04-16T05:38:17.791Z,14.9
2016-04-16T05:39:17.794Z,15.11
2016-04-16T05:40:17.797Z,15.29
2016-04-16T05:41:17.800Z,15.25
2016-04-16T05:42:17.802Z,15.23
2016-04-16T05:43:17.805Z,15.08
2016-04-16T05:44:17.807Z,14.94
2016-04-16T05:45:17.810Z,14.67
2016-04-16T05:46:17.798Z,14.52
2016-04-16T05:47:17.815Z,14.28
2016-04-16T05:48:17.819Z,14.19
2016-04-16T05:49:17.806Z,14.18
2016-04-16T05:50:17.809Z,14.05
2016-04-16T05:51:17.826Z,14.05
2016-04-16T05:52:17.814Z,14.01
2016-04-16T05:53:17.817Z,13.93
2016-04-16T05:54:17.819Z,13.98
2016-04-16T05:55:17.822Z,13.95
2016-04-16T05:56:17.809Z,14.13
2016-04-16T05:57:17.811Z,14.18
2016-04-16T05:58:17.845Z,14.2
2016-04-16T05:59:17.832Z,14.31
2016-04-16T06:00:17.836Z,14.44
2016-04-16T06:01:17.822Z,14.38
2016-04-16T06:02:17.825Z,14.37
2016-04-16T06:03:17.827Z,14.43
2016-04-16T06:04:17.830Z,14.43
2016-04-16T06:05:17.833Z,14.53
2016-04-16T06:06:17.835Z,14.56
2016-04-16T06:07:17.823Z,14.73
2016-04-16T06:08:17.763Z,14.86
2016-04-16T06:09:17.828Z,15.07
2016-04-16T06:10:17.831Z,15.08
2016-04-16T06:11:17.834Z,15.36
2016-04-16T06:12:17.837Z,15.45
2016-04-16T06:13:17.840Z,15.54
2016-04-16T06:14:17.873Z,15.59
2016-04-16T06:15:17.845Z,15.67
2016-04-16T06:16:17.832Z,15.62
2016-04-16T06:17:17.851Z,15.65
2016-04-16T06:18:17.853Z,15.67
2016-04-16T06:19:17.856Z,15.69
2016-04-16T06:20:17.858Z,15.78
2016-04-16T06:21:17.861Z,15.75
2016-04-16T06:22:17.863Z,15.83
2016-04-16T06:23:17.867Z,15.84
2016-04-16T06:24:17.853Z,16.05
2016-04-16T06:25:17.872Z,16.17
2016-04-16T06:26:17.859Z,16.22
2016-04-16T06:27:17.877Z,16.18
2016-04-16T06:28:17.863Z,16.16
2016-04-16T06:29:17.867Z,16.08
2016-04-16T06:30:17.869Z,16.12
2016-04-16T06:31:17.872Z,16.12
2016-04-16T06:32:17.874Z,16.09
2016-04-16T06:33:17.861Z,15.98
2016-04-16T06:34:17.880Z,15.88
2016-04-16T06:35:17.866Z,15.84
2016-04-16T06:36:17.886Z,15.72
2016-04-16T06:37:17.872Z,15.6
2016-04-16T06:38:17.922Z,15.48
2016-04-16T06:39:17.877Z,15.43
2016-04-16T06:40:17.896Z,15.33
2016-04-16T06:41:17.883Z,15.19
2016-04-16T06:42:17.886Z,15.14
2016-04-16T06:43:17.889Z,15
2016-04-16T06:44:17.891Z,14.99
2016-04-16T06:45:17.894Z,14.81
2016-04-16T06:46:17.896Z,14.52
2016-04-16T06:47:17.899Z,14.38
2016-04-16T06:48:17.902Z,14.26
2016-04-16T06:49:17.904Z,14.03
2016-04-16T06:50:17.907Z,13.67
2016-04-16T06:51:18.020Z,13.52
2016-04-16T06:52:17.895Z,13.21
2016-04-16T06:53:17.898Z,13.24
2016-04-16T06:54:17.900Z,13.05
2016-04-16T06:55:17.903Z,12.99
2016-04-16T06:56:17.906Z,12.98
2016-04-16T06:57:17.908Z,12.81
2016-04-16T06:58:17.911Z,12.73
2016-04-16T06:59:17.914Z,12.72
2016-04-16T07:00:17.916Z,12.73
2016-04-16T07:01:17.919Z,12.73
2016-04-16T07:02:17.906Z,12.7
2016-04-16T07:03:17.924Z,12.84
2016-04-16T07:04:17.911Z,12.98
2016-04-16T07:05:17.914Z,13.09
2016-04-16T07:06:17.838Z,13.06
2016-04-16T07:07:17.919Z,13.19
2016-04-16T07:08:17.922Z,13.17
2016-04-16T07:09:17.924Z,13.28
2016-04-16T07:10:17.911Z,13.27
2016-04-16T07:11:17.929Z,13.17
2016-04-16T07:12:17.933Z,13.21
2016-04-16T07:13:17.920Z,13.31
2016-04-16T07:14:17.921Z,13.33
2016-04-16T07:15:17.925Z,13.21
2016-04-16T07:16:17.943Z,13.31
2016-04-16T07:17:17.946Z,13.28
2016-04-16T07:18:17.933Z,13.24
2016-04-16T07:19:17.951Z,13.16
2016-04-16T07:20:17.938Z,13.27
2016-04-16T07:21:17.987Z,13.16
2016-04-16T07:22:17.787Z,13.3
2016-04-16T07:23:17.946Z,13.17
2016-04-16T07:24:17.948Z,13.05
2016-04-16T07:25:17.936Z,13.06
2016-04-16T07:26:17.939Z,12.95
2016-04-16T07:27:17.942Z,12.93
2016-04-16T07:28:17.944Z,12.84
2016-04-16T07:29:17.947Z,12.78
2016-04-16T07:30:17.950Z,12.81
2016-04-16T07:31:17.953Z,12.76
2016-04-16T07:32:17.956Z,12.62
2016-04-16T07:33:17.958Z,12.55
2016-04-16T07:34:17.945Z,12.55
2016-04-16T07:35:17.947Z,12.66
2016-04-16T07:36:17.981Z,12.68
2016-04-16T07:37:17.953Z,12.72
2016-04-16T07:38:17.940Z,12.75
2016-04-16T07:39:17.958Z,12.76
2016-04-16T07:40:17.945Z,12.72
2016-04-16T07:41:17.963Z,12.72
2016-04-16T07:42:17.952Z,12.73
2016-04-16T07:43:17.968Z,12.73
2016-04-16T07:44:17.956Z,12.88
2016-04-16T07:45:17.959Z,12.98
2016-04-16T07:46:17.962Z,12.99
2016-04-16T07:47:17.965Z,13.06
2016-04-16T07:48:17.968Z,13.13
2016-04-16T07:49:17.954Z,13.17
2016-04-16T07:50:17.973Z,13.27
2016-04-16T07:51:18.006Z,13.24
2016-04-16T07:52:17.978Z,13.26
2016-04-16T07:53:17.965Z,13.31
2016-04-16T07:54:17.984Z,13.24
2016-04-16T07:55:17.986Z,13.26
2016-04-16T07:56:17.989Z,13.23
2016-04-16T07:57:17.976Z,13.28
2016-04-16T07:58:17.979Z,13.31
2016-04-16T07:59:17.980Z,13.3
2016-04-16T08:00:17.967Z,13.3
2016-04-16T08:01:17.971Z,13.39
2016-04-16T08:02:17.973Z,13.36
2016-04-16T08:03:17.975Z,13.5
2016-04-16T08:04:17.978Z,13.47
2016-04-16T08:05:17.981Z,13.47
2016-04-16T08:06:18.016Z,13.55
2016-04-16T08:07:18.002Z,13.7
2016-04-16T08:08:17.974Z,13.83
2016-04-16T08:09:17.977Z,13.86
2016-04-16T08:10:17.980Z,14.01
2016-04-16T08:11:17.982Z,13.95
2016-04-16T08:12:17.985Z,14.08
2016-04-16T08:13:17.987Z,14.12
2016-04-16T08:14:17.990Z,14.07
2016-04-16T08:15:17.993Z,14.05
2016-04-16T08:16:17.995Z,13.94
2016-04-16T08:17:17.988Z,13.87
2016-04-16T08:18:18.006Z,13.76
2016-04-16T08:19:17.993Z,13.71
2016-04-16T08:20:17.996Z,13.68
2016-04-16T08:21:17.998Z,13.58
2016-04-16T08:22:18.000Z,13.46
2016-04-16T08:23:18.004Z,13.42
2016-04-16T08:24:17.990Z,13.47
2016-04-16T08:25:17.993Z,13.5
2016-04-16T08:26:17.995Z,13.47
2016-04-16T08:27:17.998Z,13.45
2016-04-16T08:28:18.033Z,13.3
2016-04-16T08:29:18.019Z,13.24
2016-04-16T08:30:18.006Z,13.2
2016-04-16T08:31:18.009Z,13.31
2016-04-16T08:32:18.012Z,13.27
2016-04-16T08:33:18.014Z,13.2
2016-04-16T08:34:18.017Z,13.11
2016-04-16T08:35:18.020Z,13.03
2016-04-16T08:36:18.007Z,12.94
2016-04-16T08:37:18.010Z,12.88
2016-04-16T08:38:18.013Z,13.01
2016-04-16T08:39:18.015Z,12.93
2016-04-16T08:40:18.018Z,12.86
2016-04-16T08:41:18.021Z,12.86
2016-04-16T08:42:18.007Z,12.84
2016-04-16T08:43:18.010Z,12.8
2016-04-16T08:44:18.013Z,12.8
2016-04-16T08:45:18.016Z,12.69
2016-04-16T08:46:18.019Z,12.7
2016-04-16T08:47:18.021Z,12.69
2016-04-16T08:48:18.024Z,12.8
2016-04-16T08:49:18.026Z,12.81
2016-04-16T08:50:18.013Z,12.81
2016-04-16T08:51:18.016Z,12.81
2016-04-16T08:52:18.035Z,12.93
2016-04-16T08:53:18.021Z,12.91
2016-04-16T08:54:18.024Z,12.88
2016-04-16T08:55:18.027Z,12.86
2016-04-16T08:56:18.029Z,12.88
2016-04-16T08:57:18.032Z,12.9
2016-04-16T08:58:18.034Z,12.86
2016-04-16T08:59:18.037Z,12.84
2016-04-16T09:00:18.024Z,12.72
2016-04-16T09:01:18.028Z,12.72
2016-04-16T09:02:18.045Z,12.75
2016-04-16T09:03:18.033Z,12.7
2016-04-16T09:04:18.036Z,12.75
2016-04-16T09:05:18.038Z,12.72
2016-04-16T09:06:18.041Z,12.72
2016-04-16T09:07:18.044Z,12.83
2016-04-16T09:08:18.047Z,12.76
2016-04-16T09:09:18.033Z,12.84
2016-04-16T09:10:18.036Z,12.76
2016-04-16T09:11:18.054Z,12.72
2016-04-16T09:12:18.057Z,12.75
2016-04-16T09:13:18.044Z,12.68
2016-04-16T09:14:18.046Z,12.51
2016-04-16T09:15:18.065Z,12.53
2016-04-16T09:16:18.052Z,12.47
2016-04-16T09:17:18.040Z,12.37
2016-04-16T09:18:18.058Z,12.32
2016-04-16T09:19:18.059Z,12.26
2016-04-16T09:20:18.047Z,12.14
2016-04-16T09:21:18.065Z,12.1
2016-04-16T09:22:18.053Z,12.18
2016-04-16T09:23:18.055Z,12.12
2016-04-16T09:24:18.059Z,12.11
2016-04-16T09:25:18.061Z,12.14
2016-04-16T09:26:18.064Z,12.14
2016-04-16T09:27:18.050Z,12.1
2016-04-16T09:28:18.053Z,12.12
2016-04-16T09:29:18.056Z,12.15
2016-04-16T09:30:18.059Z,12.15
2016-04-16T09:31:18.062Z,12.18
2016-04-16T09:32:18.064Z,12.2
2016-04-16T09:33:18.067Z,12.33
2016-04-16T09:34:18.053Z,12.45
2016-04-16T09:35:18.056Z,12.48
2016-04-16T09:36:18.074Z,12.5
2016-04-16T09:37:18.093Z,12.58
2016-04-16T09:38:18.064Z,12.57
2016-04-16T09:39:18.067Z,12.58
2016-04-16T09:40:18.070Z,12.66
2016-04-16T09:41:18.072Z,12.75
2016-04-16T09:42:18.075Z,12.75
2016-04-16T09:43:18.062Z,12.69
2016-04-16T09:44:18.065Z,12.76
2016-04-16T09:45:18.067Z,12.86
2016-04-16T09:46:18.070Z,12.93
2016-04-16T09:47:18.073Z,12.87
2016-04-16T09:48:18.076Z,12.91
2016-04-16T09:49:18.078Z,12.98
2016-04-16T09:50:18.081Z,13.02
2016-04-16T09:51:18.084Z,13.01
2016-04-16T09:52:18.087Z,13.11
2016-04-16T09:53:18.074Z,13.09
2016-04-16T09:54:18.076Z,13.09
2016-04-16T09:55:18.079Z,13.02
2016-04-16T09:56:18.081Z,13.06
2016-04-16T09:57:18.084Z,13.06
2016-04-16T09:58:18.087Z,13.06
2016-04-16T09:59:18.073Z,13.03
2016-04-16T10:00:18.076Z,13.09
2016-04-16T10:01:18.094Z,13.13
2016-04-16T10:02:18.082Z,13.26
2016-04-16T10:03:18.085Z,13.27
2016-04-16T10:04:18.087Z,13.31
2016-04-16T10:05:18.089Z,13.31
2016-04-16T10:06:18.092Z,13.55
2016-04-16T10:07:18.095Z,13.47
2016-04-16T10:08:18.098Z,13.55
2016-04-16T10:09:18.086Z,13.62
2016-04-16T10:10:18.103Z,13.64
2016-04-16T10:11:18.091Z,13.61
2016-04-16T10:12:18.094Z,13.62
2016-04-16T10:13:18.111Z,13.61
2016-04-16T10:14:18.099Z,13.65
2016-04-16T10:15:18.102Z,13.68
2016-04-16T10:16:18.105Z,13.7
2016-04-16T10:17:18.122Z,13.65
2016-04-16T10:18:18.110Z,13.78
2016-04-16T10:19:18.112Z,13.8
2016-04-16T10:20:18.115Z,13.75
2016-04-16T10:21:18.117Z,13.87
2016-04-16T10:22:18.120Z,13.89
2016-04-16T10:23:18.107Z,13.86
2016-04-16T10:24:18.110Z,14
2016-04-16T10:25:18.113Z,14.16
2016-04-16T10:26:18.115Z,14.16
2016-04-16T10:27:18.103Z,14.25
2016-04-16T10:28:18.105Z,14.36
2016-04-16T10:29:18.123Z,14.38
2016-04-16T10:30:18.110Z,14.56
2016-04-16T10:31:18.113Z,14.62
2016-04-16T10:32:18.116Z,14.87
2016-04-16T10:33:18.119Z,14.96
2016-04-16T10:34:18.121Z,15.11
2016-04-16T10:35:18.124Z,15.15
2016-04-16T10:36:18.127Z,15.26
2016-04-16T10:37:18.114Z,15.36
2016-04-16T10:38:18.133Z,15.47
2016-04-16T10:39:18.119Z,15.73
2016-04-16T10:40:18.122Z,15.94
2016-04-16T10:41:18.124Z,16.13
2016-04-16T10:42:18.127Z,16.29
2016-04-16T10:43:18.130Z,16.54
2016-04-16T10:44:18.149Z,16.58
2016-04-16T10:45:18.135Z,16.69
2016-04-16T10:46:18.138Z,16.98
2016-04-16T10:47:18.125Z,17.31
2016-04-16T10:48:18.127Z,17.69
2016-04-16T10:49:18.130Z,17.93
2016-04-16T10:50:18.132Z,17.97
2016-04-16T10:51:17.979Z,18
2016-04-16T10:52:18.153Z,17.98
2016-04-16T10:53:18.140Z,17.91
2016-04-16T10:54:18.143Z,17.87
2016-04-16T10:55:18.146Z,17.73
2016-04-16T10:56:18.148Z,17.66
2016-04-16T10:57:18.151Z,17.69
2016-04-16T10:58:18.139Z,17.65
2016-04-16T10:59:18.157Z,17.49
2016-04-16T11:00:18.160Z,17.35
2016-04-16T11:01:18.163Z,17.2
2016-04-16T11:02:18.165Z,17.13
2016-04-16T11:03:18.153Z,17.28
2016-04-16T11:04:18.155Z,17.54
2016-04-16T11:05:18.173Z,17.88
2016-04-16T11:06:18.160Z,18.13
2016-04-16T11:07:18.178Z,18.39
2016-04-16T11:08:18.166Z,18.61
2016-04-16T11:09:18.184Z,18.88
2016-04-16T11:10:18.172Z,19.15
2016-04-16T11:11:18.174Z,19.48
2016-04-16T11:12:18.177Z,19.48
2016-04-16T11:13:18.179Z,19.55
2016-04-16T11:14:18.182Z,19.56
2016-04-16T11:15:18.184Z,19.81
2016-04-16T11:16:18.171Z,19.82
2016-04-16T11:17:18.190Z,19.9
2016-04-16T11:18:18.193Z,19.94
2016-04-16T11:19:18.179Z,19.81
2016-04-16T11:20:18.198Z,19.75
2016-04-16T11:21:18.185Z,19.7
2016-04-16T11:22:18.235Z,19.6
2016-04-16T11:23:18.190Z,19.57
2016-04-16T11:24:18.193Z,19.47
2016-04-16T11:25:18.196Z,19.48
2016-04-16T11:26:18.198Z,19.57
2016-04-16T11:27:18.201Z,19.6
2016-04-16T11:28:18.204Z,19.55
2016-04-16T11:29:18.206Z,19.48
2016-04-16T11:30:18.225Z,19.49
2016-04-16T11:31:18.211Z,19.47
2016-04-16T11:32:18.215Z,19.47
2016-04-16T11:33:18.217Z,19.55
2016-04-16T11:34:18.220Z,19.52
2016-04-16T11:35:18.223Z,19.72
2016-04-16T11:36:18.225Z,19.82
2016-04-16T11:37:18.431Z,19.67
2016-04-16T11:38:18.231Z,19.59
2016-04-16T11:39:18.233Z,19.49
2016-04-16T11:40:18.236Z,19.52
2016-04-16T11:41:18.239Z,19.41
2016-04-16T11:42:18.241Z,19.35
2016-04-16T11:43:18.244Z,19.3
2016-04-16T11:44:18.247Z,19.24
2016-04-16T11:45:18.249Z,19.24
2016-04-16T11:46:18.252Z,19.19
2016-04-16T11:47:18.255Z,19.08
2016-04-16T11:48:18.257Z,18.89
2016-04-16T11:49:18.260Z,18.85
2016-04-16T11:50:18.263Z,18.85
2016-04-16T11:51:18.293Z,19.01
2016-04-16T11:52:18.387Z,19.22
2016-04-16T11:53:18.403Z,19.2
2016-04-16T11:54:18.449Z,19.41
2016-04-16T11:55:18.480Z,19.52
2016-04-16T11:56:18.516Z,19.75
2016-04-16T11:57:18.518Z,19.79
2016-04-16T11:58:18.552Z,19.96
2016-04-16T11:59:18.555Z,20.19
2016-04-16T12:00:18.589Z,20.36
2016-04-16T12:01:18.581Z,20.42
2016-04-16T12:02:18.591Z,20.46
2016-04-16T12:03:18.615Z,20.36
2016-04-16T12:04:18.607Z,20.53
2016-04-16T12:05:18.616Z,20.55
2016-04-16T12:06:18.620Z,20.55
2016-04-16T12:07:18.657Z,20.67
2016-04-16T12:08:18.631Z,20.75
2016-04-16T12:09:18.682Z,20.8
2016-04-16T12:10:18.641Z,20.73
2016-04-16T12:11:18.644Z,20.75
2016-04-16T12:12:18.648Z,20.93
2016-04-16T12:13:18.651Z,21.03
2016-04-16T12:14:18.686Z,21.05
2016-04-16T12:15:18.721Z,21.17
2016-04-16T12:16:18.661Z,21.3
2016-04-16T12:17:18.680Z,21.4
2016-04-16T12:18:18.668Z,21.44
2016-04-16T12:19:18.686Z,21.51
2016-04-16T12:20:18.690Z,21.5
2016-04-16T12:21:18.676Z,21.47
2016-04-16T12:22:18.836Z,21.51
2016-04-16T12:23:18.681Z,21.38
2016-04-16T12:24:18.684Z,21.23
2016-04-16T12:25:18.687Z,21.05
2016-04-16T12:26:18.690Z,21.11
2016-04-16T12:27:18.692Z,21.13
2016-04-16T12:28:18.695Z,21.22
2016-04-16T12:29:18.698Z,21.3
2016-04-16T12:30:18.700Z,21.44
2016-04-16T12:31:18.703Z,21.56
2016-04-16T12:32:18.706Z,21.6
2016-04-16T12:33:18.709Z,21.59
2016-04-16T12:34:18.711Z,21.6
2016-04-16T12:35:18.713Z,21.59
2016-04-16T12:36:18.717Z,21.51
2016-04-16T12:37:18.782Z,21.56
2016-04-16T12:38:18.722Z,21.62
2016-04-16T12:39:18.725Z,21.69
2016-04-16T12:40:18.727Z,21.68
2016-04-16T12:41:18.730Z,21.65
2016-04-16T12:42:18.733Z,21.68
2016-04-16T12:43:18.735Z,21.7
2016-04-16T12:44:18.738Z,21.74
2016-04-16T12:45:18.741Z,21.65
2016-04-16T12:46:18.743Z,21.58
2016-04-16T12:47:18.746Z,21.41
2016-04-16T12:48:18.748Z,21.25
2016-04-16T12:49:18.752Z,21.08
2016-04-16T12:50:18.754Z,21
2016-04-16T12:51:18.757Z,20.85
2016-04-16T12:52:18.760Z,20.9
2016-04-16T12:53:18.762Z,20.93
2016-04-16T12:54:18.781Z,20.95
2016-04-16T12:55:18.767Z,20.88
2016-04-16T12:56:18.770Z,20.86
2016-04-16T12:57:18.773Z,20.78
2016-04-16T12:58:18.775Z,20.73
2016-04-16T12:59:18.778Z,20.67
2016-04-16T13:00:18.797Z,20.6
2016-04-16T13:01:18.784Z,20.59
2016-04-16T13:02:18.802Z,20.5
2016-04-16T13:03:18.789Z,20.56
2016-04-16T13:04:18.807Z,20.49
2016-04-16T13:05:18.794Z,20.44